Time;durP1;ratioP1;P1;durP2;ratioP2;P2;SDS_P1;SDS_P2;PMS_P1;PMS_P2;Temp;Humidity;BMP_temperature;BMP_pressure;BME280_temperature;BME280_humidity;BME280_pressure;Samples;Min_cycle;Max_cycle;Signal;HPM_P1;HPM_P2
2023/09/11 00:01:46;;;;;;;2.90;0.73;;;;;;;20.63;53.68;99295.44;5056866;28;20663;-86
2023/09/11 00:04:12;;;;;;;2.90;0.47;;;;;;;20.63;53.59;99298.97;5074374;28;20184;-86
2023/09/11 00:06:38;;;;;;;0.83;0.40;;;;;;;20.66;53.68;99300.50;5074742;28;20177;-86
2023/09/11 00:09:03;;;;;;;1.57;0.53;;;;;;;20.57;53.79;99301.34;5074073;28;20260;-86
2023/09/11 00:11:29;;;;;;;0.60;0.40;;;;;;;20.49;54.05;99291.38;5074198;28;20184;-86
2023/09/11 00:13:55;;;;;;;3.20;0.50;;;;;;;20.62;53.84;99299.13;5074154;28;20192;-86
2023/09/11 00:16:22;;;;;;;1.87;0.50;;;;;;;20.71;53.38;99292.94;5074258;28;20173;-86
2023/09/11 00:18:47;;;;;;;1.20;0.50;;;;;;;20.69;53.45;99282.44;5074585;28;20219;-86
2023/09/11 00:21:14;;;;;;;1.20;0.50;;;;;;;20.75;53.36;99286.34;5074109;28;20284;-86
2023/09/11 00:23:40;;;;;;;4.03;0.57;;;;;;;20.79;52.88;99285.06;5073925;28;20633;-86
2023/09/11 00:26:06;;;;;;;3.33;0.60;;;;;;;20.78;53.08;99286.03;5056449;28;20177;-86
2023/09/11 00:28:33;;;;;;;1.27;0.50;;;;;;;20.79;53.05;99277.94;5073644;28;20184;-86
2023/09/11 00:31:00;;;;;;;1.60;0.43;;;;;;;20.77;53.02;99295.03;5074468;28;20179;-86
2023/09/11 00:33:26;;;;;;;7.20;0.70;;;;;;;20.74;53.17;99287.31;5073958;28;20207;-86
2023/09/11 00:35:54;;;;;;;3.30;0.40;;;;;;;20.71;53.34;99292.94;5073784;28;20716;-86
2023/09/11 00:38:20;;;;;;;1.57;0.50;;;;;;;20.68;53.38;99282.56;5072697;28;20246;-86
2023/09/11 00:40:46;;;;;;;1.33;0.50;;;;;;;20.67;53.55;99291.53;5073725;28;20216;-86
2023/09/11 00:43:12;;;;;;;2.30;0.70;;;;;;;20.71;53.37;99284.94;5052400;28;20715;-86
2023/09/11 00:45:38;;;;;;;4.30;0.60;;;;;;;20.68;53.11;99283.41;5053692;28;20177;-86
2023/09/11 00:48:06;;;;;;;1.33;0.43;;;;;;;20.65;53.37;99280.19;5039768;28;20212;-86
2023/09/11 00:50:32;;;;;;;2.07;0.40;;;;;;;20.60;53.66;99291.25;5034282;28;20253;-86
2023/09/11 00:52:59;;;;;;;1.60;0.50;;;;;;;20.63;53.53;99292.78;5032770;28;20559;-86
2023/09/11 00:55:27;;;;;;;1.33;0.40;;;;;;;20.55;53.96;99282.00;5052226;28;20239;-86
2023/09/11 00:57:54;;;;;;;1.37;0.70;;;;;;;20.55;53.87;99279.31;5054107;28;20173;-86
2023/09/11 01:00:20;;;;;;;1.30;0.57;;;;;;;20.55;53.83;99277.50;5053307;28;20282;-86
2023/09/11 01:02:47;;;;;;;5.37;0.73;;;;;;;20.57;53.74;99280.06;5052341;28;20181;-86
2023/09/11 01:05:14;;;;;;;1.30;0.50;;;;;;;20.57;53.71;99274.72;5053370;28;20182;-86
2023/09/11 01:07:40;;;;;;;0.90;0.50;;;;;;;20.56;53.71;99273.88;5053445;28;20195;-86
2023/09/11 01:10:07;;;;;;;2.47;0.83;;;;;;;20.47;54.13;99282.69;5053364;28;20591;-86
2023/09/11 01:12:36;;;;;;;0.53;0.30;;;;;;;20.33;54.72;99284.94;5053834;28;20537;-86
2023/09/11 01:15:04;;;;;;;1.30;0.47;;;;;;;20.23;54.96;99283.09;5053114;28;20204;-86
2023/09/11 01:18:04;;;;;;;4.70;0.50;;;;;;;20.21;55.25;99277.03;5052664;28;20198;-86
2023/09/11 01:21:07;;;;;;;1.37;0.47;;;;;;;20.20;55.26;99272.66;5053148;28;20266;-86
2023/09/11 01:23:59;;;;;;;1.10;0.50;;;;;;;20.14;55.32;99273.25;5051113;28;20184;-85
2023/09/11 01:26:46;;;;;;;1.60;1.03;;;;;;;20.07;55.59;99274.75;5033490;28;20170;-86
2023/09/11 01:29:26;;;;;;;6.70;0.90;;;;;;;19.99;55.91;99273.78;5039962;28;20326;-86
2023/09/11 01:31:54;;;;;;;0.60;0.40;;;;;;;19.99;56.02;99271.13;5052135;28;20193;-86
2023/09/11 01:34:21;;;;;;;2.40;0.63;;;;;;;20.03;55.93;99278.69;5053484;28;20271;-86
2023/09/11 01:36:46;;;;;;;1.13;0.60;;;;;;;20.02;56.02;99281.50;5053053;28;20177;-86
2023/09/11 01:39:12;;;;;;;2.83;0.60;;;;;;;20.04;55.79;99276.88;5052863;28;20276;-86
2023/09/11 01:41:44;;;;;;;1.50;0.60;;;;;;;20.04;55.77;99276.88;5052738;28;20201;-86
2023/09/11 01:44:26;;;;;;;1.03;0.40;;;;;;;20.03;55.85;99275.16;5067933;28;20243;-86
2023/09/11 01:46:55;;;;;;;2.80;0.50;;;;;;;20.03;55.67;99276.03;5073468;28;20222;-86
2023/09/11 01:49:22;;;;;;;1.10;0.40;;;;;;;20.06;55.68;99269.59;5075603;28;20177;-86
2023/09/11 01:51:49;;;;;;;4.57;0.80;;;;;;;20.02;55.60;99274.31;5077097;28;20176;-86
2023/09/11 01:54:17;;;;;;;3.20;0.70;;;;;;;20.01;55.51;99266.50;5059247;28;20181;-86
2023/09/11 01:56:43;;;;;;;4.60;0.50;;;;;;;20.01;55.59;99277.97;5076801;28;20177;-86
2023/09/11 01:59:14;;;;;;;1.67;0.60;;;;;;;20.00;55.62;99270.97;5077018;28;20196;-86
2023/09/11 02:01:39;;;;;;;1.57;0.70;;;;;;;19.97;55.66;99273.88;5058731;28;20280;-86
2023/09/11 02:04:06;;;;;;;0.90;0.40;;;;;;;19.92;55.92;99276.13;5059169;28;20279;-86
2023/09/11 02:06:33;;;;;;;0.83;0.37;;;;;;;19.90;55.86;99270.09;5059149;28;20188;-86
2023/09/11 02:09:00;;;;;;;4.70;0.97;;;;;;;19.93;56.05;99271.66;5058939;28;20189;-86
2023/09/11 02:11:27;;;;;;;2.33;0.87;;;;;;;19.88;55.95;99265.91;5076740;28;20173;-86
2023/09/11 02:13:53;;;;;;;1.40;0.53;;;;;;;19.85;56.08;99267.00;5076508;28;20189;-86
2023/09/11 02:16:18;;;;;;;3.57;1.00;;;;;;;19.87;56.22;99274.84;5076835;28;20209;-86
2023/09/11 02:18:45;;;;;;;2.37;0.63;;;;;;;19.84;56.10;99273.28;5058835;28;20280;-86
2023/09/11 02:21:12;;;;;;;1.57;0.70;;;;;;;19.82;56.24;99266.44;5058158;28;20639;-86
2023/09/11 02:23:38;;;;;;;3.50;1.00;;;;;;;19.79;56.42;99266.69;5076059;28;20280;-86
2023/09/11 02:26:05;;;;;;;2.43;0.60;;;;;;;19.73;56.67;99265.44;5076599;28;20179;-86
2023/09/11 02:28:31;;;;;;;1.17;0.60;;;;;;;19.71;56.57;99270.03;5076132;28;20192;-86
2023/09/11 02:30:58;;;;;;;1.53;0.60;;;;;;;19.72;56.61;99271.72;5076814;28;20648;-86
2023/09/11 02:33:25;;;;;;;3.80;0.50;;;;;;;19.76;56.53;99267.00;5076288;28;20181;-86
2023/09/11 02:35:56;;;;;;;2.10;0.60;;;;;;;19.71;56.57;99264.72;5062320;28;20186;-86
2023/09/11 02:38:23;;;;;;;1.90;0.53;;;;;;;19.70;56.53;99262.19;5056138;28;20216;-86
2023/09/11 02:40:48;;;;;;;5.10;0.60;;;;;;;19.68;56.74;99270.28;5060903;28;20229;-86
2023/09/11 02:43:13;;;;;;;2.03;0.60;;;;;;;19.67;56.65;99265.13;5058114;28;20268;-86
2023/09/11 02:45:43;;;;;;;4.00;0.80;;;;;;;19.61;56.84;99264.69;5058423;28;20189;-86
2023/09/11 02:48:11;;;;;;;1.00;0.40;;;;;;;19.61;56.64;99262.03;5056819;28;20193;-86
2023/09/11 02:50:38;;;;;;;1.60;0.70;;;;;;;19.56;56.88;99266.91;5043528;28;20172;-86
2023/09/11 02:53:09;;;;;;;3.07;0.80;;;;;;;19.51;57.06;99270.94;5075405;28;20177;-86
2023/09/11 02:55:41;;;;;;;1.63;0.70;;;;;;;19.45;57.37;99263.50;5072448;28;20210;-86
2023/09/11 02:58:06;;;;;;;2.23;1.00;;;;;;;19.45;57.41;99266.16;5048246;28;20185;-86
2023/09/11 03:00:35;;;;;;;1.33;0.57;;;;;;;19.45;57.31;99267.00;5069363;28;20677;-86
2023/09/11 03:03:04;;;;;;;2.57;0.50;;;;;;;19.42;57.48;99264.59;5072587;28;20181;-85
2023/09/11 03:05:32;;;;;;;3.77;0.73;;;;;;;19.39;57.36;99264.84;5075331;28;20242;-86
2023/09/11 03:08:02;;;;;;;4.10;0.90;;;;;;;19.37;57.61;99261.50;5057966;28;20250;-86
2023/09/11 03:10:28;;;;;;;1.10;0.67;;;;;;;19.32;57.70;99263.69;5057585;28;20173;-86
2023/09/11 03:12:55;;;;;;;3.63;1.10;;;;;;;19.32;57.81;99265.50;5075541;28;20190;-86
2023/09/11 03:15:30;;;;;;;2.83;0.93;;;;;;;19.28;57.64;99259.63;5057501;28;20189;-86
2023/09/11 03:17:57;;;;;;;7.83;0.90;;;;;;;19.27;58.03;99259.72;5075498;28;20213;-86
2023/09/11 03:20:24;;;;;;;4.90;0.67;;;;;;;19.24;58.08;99257.34;5075261;28;20704;-86
2023/09/11 03:22:50;;;;;;;2.20;0.60;;;;;;;19.20;58.29;99263.91;5057464;28;20642;-86
2023/09/11 03:25:16;;;;;;;3.13;0.70;;;;;;;19.19;58.37;99260.41;5075101;28;20190;-86
2023/09/11 03:27:43;;;;;;;2.80;0.80;;;;;;;19.15;58.54;99263.47;5075252;28;20182;-86
2023/09/11 03:30:10;;;;;;;2.60;1.00;;;;;;;19.10;58.22;99265.66;5075543;28;20171;-86
2023/09/11 03:32:37;;;;;;;2.27;0.87;;;;;;;19.02;58.80;99268.97;5075038;28;20188;-86
2023/09/11 03:35:04;;;;;;;1.37;0.70;;;;;;;18.94;59.35;99264.31;5075671;28;20205;-86
2023/09/11 03:37:29;;;;;;;9.97;1.07;;;;;;;18.89;59.58;99265.69;5075045;28;20192;-86
2023/09/11 03:39:58;;;;;;;1.93;0.83;;;;;;;18.87;59.77;99267.59;5074993;28;20657;-86
2023/09/11 03:42:25;;;;;;;2.80;0.60;;;;;;;18.86;59.94;99268.59;5074967;28;20549;-86
2023/09/11 03:44:52;;;;;;;3.80;0.83;;;;;;;18.83;60.00;99271.50;5074731;28;20223;-86
2023/09/11 03:47:18;;;;;;;2.20;0.70;;;;;;;18.76;60.17;99270.34;5057260;28;20197;-86
2023/09/11 03:49:45;;;;;;;1.57;0.80;;;;;;;18.68;60.62;99276.28;5075404;28;20204;-86
2023/09/11 03:52:11;;;;;;;1.87;1.13;;;;;;;18.71;60.49;99275.19;5074586;28;20192;-86
2023/09/11 03:54:36;;;;;;;6.30;0.80;;;;;;;18.72;60.41;99282.16;5074511;28;20196;-85
2023/09/11 03:57:02;;;;;;;2.80;0.60;;;;;;;18.75;60.30;99280.13;5074300;28;20177;-85
2023/09/11 03:59:29;;;;;;;1.13;0.60;;;;;;;18.75;60.49;99280.13;5056990;28;20188;-85
2023/09/11 04:01:56;;;;;;;1.60;0.67;;;;;;;18.67;60.79;99276.41;5074278;28;20248;-85
2023/09/11 04:04:22;;;;;;;1.33;0.60;;;;;;;18.65;60.74;99281.00;5074968;28;20177;-85
2023/09/11 04:06:49;;;;;;;3.33;0.60;;;;;;;18.68;60.83;99278.94;5074330;28;20189;-85
2023/09/11 04:09:14;;;;;;;2.07;0.87;;;;;;;18.71;60.80;99280.50;5070885;28;20221;-86
2023/09/11 04:11:41;;;;;;;2.90;0.80;;;;;;;18.64;61.13;99276.66;5054098;28;20614;-85
2023/09/11 04:14:06;;;;;;;2.77;1.20;;;;;;;18.62;61.08;99275.94;5066880;28;20204;-86
2023/09/11 04:16:32;;;;;;;1.93;0.80;;;;;;;18.62;61.15;99289.22;5060043;28;20636;-86
2023/09/11 04:18:58;;;;;;;1.20;0.60;;;;;;;18.62;61.42;99290.06;5058394;28;20598;-86
2023/09/11 04:21:24;;;;;;;2.83;0.90;;;;;;;18.66;61.33;99286.19;5074136;28;20673;-86
2023/09/11 04:23:51;;;;;;;4.27;0.87;;;;;;;18.66;61.49;99286.19;5056296;28;20625;-86
2023/09/11 04:26:17;;;;;;;2.60;0.70;;;;;;;18.67;61.35;99287.88;5056473;28;20176;-86
2023/09/11 04:28:43;;;;;;;3.43;0.97;;;;;;;18.70;61.47;99289.44;5073889;28;20647;-86
2023/09/11 04:31:10;;;;;;;5.97;1.40;;;;;;;18.62;61.82;99289.22;5073983;28;20181;-86
2023/09/11 04:33:35;;;;;;;3.20;0.60;;;;;;;18.69;61.59;99285.06;5067904;28;20523;-86
2023/09/11 04:36:01;;;;;;;2.43;0.50;;;;;;;18.74;61.77;99291.69;5037156;28;20182;-86
2023/09/11 04:38:26;;;;;;;2.20;0.80;;;;;;;18.77;61.51;99288.78;5054772;28;20180;-85
2023/09/11 04:40:56;;;;;;;4.87;0.73;;;;;;;18.83;61.43;99293.59;5072402;28;20535;-86
2023/09/11 04:43:24;;;;;;;7.43;0.70;;;;;;;18.87;61.49;99288.84;5072361;28;20229;-86
2023/09/11 04:45:50;;;;;;;1.57;0.67;;;;;;;18.98;61.17;99294.09;5072233;28;20399;-86
2023/09/11 04:48:17;;;;;;;2.03;0.57;;;;;;;19.08;60.91;99291.53;5072514;28;20321;-86
2023/09/11 04:50:43;;;;;;;2.63;1.07;;;;;;;19.16;60.73;99297.00;5072850;28;20173;-86
2023/09/11 04:53:09;;;;;;;3.60;0.80;;;;;;;19.17;60.97;99294.25;5073564;28;20183;-86
2023/09/11 04:55:36;;;;;;;1.40;0.60;;;;;;;19.28;60.68;99298.63;5073576;28;20177;-86
2023/09/11 04:58:03;;;;;;;0.90;0.50;;;;;;;19.40;60.20;99294.94;5073383;28;20188;-86
2023/09/11 05:00:29;;;;;;;1.20;0.63;;;;;;;19.53;60.08;99292.91;5073339;28;20201;-86
2023/09/11 05:02:56;;;;;;;4.10;1.03;;;;;;;19.72;59.49;99292.16;5055796;28;20176;-86
2023/09/11 05:05:23;;;;;;;2.63;0.73;;;;;;;19.81;59.34;99289.53;5073937;28;20602;-86
2023/09/11 05:07:48;;;;;;;1.20;0.40;;;;;;;19.88;59.22;99289.84;5073142;28;20172;-86
2023/09/11 05:10:14;;;;;;;1.23;0.53;;;;;;;20.02;58.83;99294.78;5073123;28;20187;-86
2023/09/11 05:12:41;;;;;;;2.80;0.90;;;;;;;20.10;59.04;99294.94;5073417;28;20573;-85
2023/09/11 05:15:07;;;;;;;3.00;0.73;;;;;;;20.28;59.12;99295.16;5073383;28;20200;-85
2023/09/11 05:17:33;;;;;;;3.70;0.50;;;;;;;20.60;58.10;99287.72;5073216;28;20242;-86
2023/09/11 05:20:00;;;;;;;2.97;1.00;;;;;;;20.82;57.03;99280.31;5073128;28;20264;-86
2023/09/11 05:22:27;;;;;;;2.40;0.87;;;;;;;20.95;57.01;99285.34;5073189;28;20550;-86
2023/09/11 05:24:53;;;;;;;1.80;0.80;;;;;;;21.10;56.63;99283.94;5072800;28;20183;-86
2023/09/11 05:27:20;;;;;;;1.47;0.87;;;;;;;21.24;55.70;99285.31;5072840;28;20205;-86
2023/09/11 05:29:47;;;;;;;2.00;0.70;;;;;;;21.27;55.89;99285.03;5073161;28;20187;-86
2023/09/11 05:32:14;;;;;;;1.57;0.73;;;;;;;21.36;55.99;99282.34;5072848;28;20272;-86
2023/09/11 05:34:40;;;;;;;1.87;0.53;;;;;;;21.44;55.10;99290.47;5055199;28;20185;-86
2023/09/11 05:37:07;;;;;;;3.50;0.97;;;;;;;21.50;55.37;99285.53;5073344;28;20177;-86
2023/09/11 05:39:34;;;;;;;1.63;0.63;;;;;;;21.65;55.56;99276.91;5073575;28;20296;-86
2023/09/11 05:42:00;;;;;;;3.07;0.63;;;;;;;21.83;54.43;99285.81;5055114;28;20582;-86
2023/09/11 05:44:27;;;;;;;2.23;0.60;;;;;;;22.10;53.02;99285.00;5072875;28;20315;-86
2023/09/11 05:46:54;;;;;;;2.40;0.80;;;;;;;22.47;52.06;99275.03;5073490;28;20169;-86
2023/09/11 05:49:21;;;;;;;1.50;0.40;;;;;;;22.80;51.51;99273.53;5072732;28;20246;-86
2023/09/11 05:51:48;;;;;;;2.73;0.70;;;;;;;23.06;50.97;99284.28;5072943;28;20187;-86
2023/09/11 05:54:13;;;;;;;1.53;0.60;;;;;;;23.41;50.00;99273.50;5072748;28;20267;-86
2023/09/11 05:56:40;;;;;;;3.23;0.73;;;;;;;23.56;49.47;99282.59;5072898;28;20177;-86
2023/09/11 05:59:06;;;;;;;3.23;0.83;;;;;;;23.68;48.92;99286.69;5072800;28;20173;-86
2023/09/11 06:01:32;;;;;;;3.53;0.60;;;;;;;23.89;47.85;99282.75;5072913;28;20557;-86
2023/09/11 06:03:58;;;;;;;3.77;0.40;;;;;;;24.12;46.78;99284.72;5072812;28;20169;-86
2023/09/11 06:06:24;;;;;;;1.73;0.60;;;;;;;24.42;46.56;99280.63;5073314;28;20648;-86
2023/09/11 06:08:50;;;;;;;1.23;0.40;;;;;;;24.76;45.86;99284.00;5072810;28;20277;-86
2023/09/11 06:11:17;;;;;;;1.53;0.60;;;;;;;25.20;44.18;99289.06;5072665;28;20639;-86
2023/09/11 06:13:42;;;;;;;3.13;0.47;;;;;;;25.67;43.87;99291.84;5072534;28;20184;-86
2023/09/11 06:16:08;;;;;;;5.77;0.40;;;;;;;26.09;42.27;99289.66;5055378;28;20184;-87
2023/09/11 06:18:33;;;;;;;3.90;1.07;;;;;;;26.44;41.62;99289.13;5072884;28;20618;-86
2023/09/11 06:21:00;;;;;;;4.27;0.73;;;;;;;26.65;41.03;99286.63;5072529;28;20295;-86
2023/09/11 06:23:26;;;;;;;1.87;0.60;;;;;;;26.95;40.73;99290.31;5054614;28;20185;-86
2023/09/11 06:25:52;;;;;;;2.23;0.50;;;;;;;27.20;40.43;99293.66;5072821;28;20199;-85
2023/09/11 06:28:18;;;;;;;3.93;0.73;;;;;;;27.32;39.73;99294.88;5054677;28;20612;-86
2023/09/11 06:30:45;;;;;;;2.37;0.50;;;;;;;27.62;39.24;99298.47;5072316;28;20623;-86
2023/09/11 06:33:10;;;;;;;3.00;0.40;;;;;;;27.98;38.36;99297.53;5072942;28;20193;-86
2023/09/11 06:35:36;;;;;;;5.07;0.90;;;;;;;28.42;37.94;99292.06;5065223;28;20177;-87
2023/09/11 06:38:02;;;;;;;1.17;0.50;;;;;;;28.95;37.02;99295.34;5056196;28;20719;-86
2023/09/11 06:40:28;;;;;;;2.78;0.45;;;;;;;29.42;35.19;99300.09;5056086;28;20205;-87
2023/09/11 06:42:53;;;;;;;1.48;0.40;;;;;;;29.89;34.85;99299.41;5056144;28;20250;-87
2023/09/11 06:45:18;;;;;;;2.78;0.65;;;;;;;30.12;34.33;99305.31;5056139;28;20225;-87
2023/09/11 06:47:45;;;;;;;6.57;0.63;;;;;;;30.50;34.21;99298.44;5076361;28;20180;-86
2023/09/11 06:50:12;;;;;;;3.30;0.30;;;;;;;30.98;33.26;99296.44;5076243;28;20222;-88
2023/09/11 06:52:40;;;;;;;1.92;0.38;;;;;;;31.23;32.43;99300.22;5058356;28;20270;-87
2023/09/11 06:55:08;;;;;;;1.02;0.40;;;;;;;31.19;31.78;99298.97;5075757;28;20181;-88
2023/09/11 06:57:34;;;;;;;1.10;0.40;;;;;;;31.21;32.33;99298.78;5058289;28;20185;-87
2023/09/11 07:00:08;;;;;;;1.23;0.30;;;;;;;31.51;31.61;99298.13;5075658;28;20212;-88
2023/09/11 07:02:35;;;;;;;2.05;0.45;;;;;;;31.80;31.30;99301.41;5058565;28;20593;-86
2023/09/11 07:05:02;;;;;;;1.98;0.70;;;;;;;31.93;31.49;99299.50;5057810;28;20563;-86
2023/09/11 07:07:29;;;;;;;2.05;0.25;;;;;;;31.93;31.25;99296.78;5076159;28;20184;-87
2023/09/11 07:09:56;;;;;;;0.73;0.25;;;;;;;31.94;30.81;99298.47;5057843;28;20189;-86
2023/09/11 07:12:22;;;;;;;3.28;0.50;;;;;;;31.98;31.08;99304.28;5075998;28;20188;-86
2023/09/11 07:14:49;;;;;;;1.80;0.93;;;;;;;32.02;30.77;99303.66;5075755;28;20181;-86
2023/09/11 07:17:14;;;;;;;2.80;0.40;;;;;;;31.87;30.78;99304.94;5075140;28;20234;-86
2023/09/11 07:19:41;;;;;;;1.85;0.47;;;;;;;31.62;31.00;99299.38;5075386;28;20168;-86
2023/09/11 07:22:07;;;;;;;1.13;0.43;;;;;;;31.74;31.00;99310.38;5075149;28;20208;-86
2023/09/11 07:24:33;;;;;;;1.27;0.45;;;;;;;31.78;31.26;99301.63;5075312;28;20169;-86
2023/09/11 07:26:59;;;;;;;2.13;0.40;;;;;;;31.63;31.13;99302.94;5074808;28;20169;-86
2023/09/11 07:29:26;;;;;;;1.35;0.30;;;;;;;31.45;31.41;99300.81;5075196;28;20192;-86
2023/09/11 07:31:53;;;;;;;1.13;0.30;;;;;;;31.44;31.08;99300.00;5075341;28;20170;-86
2023/09/11 07:34:19;;;;;;;1.08;0.52;;;;;;;31.30;31.30;99301.03;5057367;28;20250;-86
2023/09/11 07:36:45;;;;;;;1.00;0.50;;;;;;;31.00;31.27;99300.63;5057360;28;20173;-86
2023/09/11 07:39:12;;;;;;;6.50;0.55;;;;;;;30.93;31.90;99305.19;5057294;28;20187;-86
2023/09/11 07:41:38;;;;;;;1.55;0.55;;;;;;;30.83;31.50;99309.31;5050119;28;20208;-86
2023/09/11 07:44:03;;;;;;;1.55;0.32;;;;;;;30.83;31.37;99310.16;5042332;28;20185;-86
2023/09/11 07:46:30;;;;;;;1.70;0.50;;;;;;;30.88;30.87;99307.66;5075298;28;20626;-86
2023/09/11 07:48:57;;;;;;;1.38;0.47;;;;;;;30.87;30.98;99305.97;5075021;28;20242;-86
2023/09/11 07:51:24;;;;;;;1.08;0.35;;;;;;;30.89;31.10;99306.63;5074622;28;20255;-87
2023/09/11 07:53:51;;;;;;;1.83;0.55;;;;;;;30.87;30.79;99297.06;5074696;28;20614;-86
2023/09/11 07:56:16;;;;;;;1.58;0.30;;;;;;;30.79;31.31;99300.75;5074493;28;20183;-86
2023/09/11 07:58:43;;;;;;;1.27;0.50;;;;;;;30.82;31.64;99294.94;5074588;28;20166;-85
2023/09/11 08:01:09;;;;;;;4.13;0.65;;;;;;;30.88;30.10;99291.41;5056785;28;20209;-86
2023/09/11 08:03:35;;;;;;;1.58;0.30;;;;;;;30.87;30.32;99295.16;5074526;28;20234;-87
2023/09/11 08:06:04;;;;;;;0.88;0.40;;;;;;;30.74;29.95;99288.91;5074525;28;20173;-86
2023/09/11 08:08:29;;;;;;;0.95;0.43;;;;;;;30.57;30.60;99293.88;5074390;28;20173;-86
2023/09/11 08:10:55;;;;;;;1.73;0.75;;;;;;;30.37;30.83;99295.69;5074585;28;20173;-85
2023/09/11 08:13:21;;;;;;;4.38;0.43;;;;;;;30.30;30.71;99292.09;5074774;28;20256;-86
2023/09/11 08:15:47;;;;;;;0.90;0.30;;;;;;;30.19;30.55;99295.38;5074086;28;20177;-86
2023/09/11 08:18:13;;;;;;;0.70;0.30;;;;;;;30.30;31.46;99292.09;5074183;28;20629;-86
2023/09/11 08:20:45;;;;;;;2.08;0.32;;;;;;;30.14;30.75;99287.03;5074667;28;20204;-86
2023/09/11 08:23:12;;;;;;;0.50;0.22;;;;;;;30.27;30.59;99278.97;5056356;28;20191;-86
2023/09/11 08:25:38;;;;;;;1.65;0.40;;;;;;;30.12;29.99;99289.09;5074039;28;20649;-86
2023/09/11 08:28:04;;;;;;;2.65;0.40;;;;;;;30.29;30.61;99287.72;5072932;28;20259;-86
2023/09/11 08:30:31;;;;;;;2.17;0.40;;;;;;;30.31;31.26;99286.47;5053859;28;20257;-85
2023/09/11 08:32:58;;;;;;;2.08;0.55;;;;;;;29.86;31.55;99288.97;5054513;28;20665;-85
2023/09/11 08:35:23;;;;;;;1.25;0.40;;;;;;;30.00;30.66;99285.31;5060442;28;20255;-85
2023/09/11 08:37:50;;;;;;;2.03;0.40;;;;;;;30.00;29.54;99286.16;5074138;28;20201;-85
2023/09/11 08:40:17;;;;;;;2.58;0.60;;;;;;;29.50;30.26;99283.75;5073720;28;20169;-84
2023/09/11 08:42:43;;;;;;;1.98;0.45;;;;;;;29.29;31.27;99276.53;5055949;28;20177;-85
2023/09/11 08:45:10;;;;;;;1.73;0.47;;;;;;;29.65;29.00;99271.78;5056196;28;20188;-85
2023/09/11 08:47:38;;;;;;;1.67;0.30;;;;;;;29.55;30.20;99276.72;5056000;28;20173;-85
2023/09/11 08:50:06;;;;;;;1.60;0.63;;;;;;;29.86;29.97;99272.75;5074428;28;20177;-85
2023/09/11 08:52:34;;;;;;;1.17;0.47;;;;;;;30.15;29.63;99265.19;5055827;28;20263;-86
2023/09/11 08:55:07;;;;;;;1.90;0.45;;;;;;;30.40;29.43;99265.50;5055836;28;20177;-85
2023/09/11 08:57:35;;;;;;;4.90;0.40;;;;;;;30.51;28.63;99258.66;5073711;28;20171;-85
2023/09/11 09:00:08;;;;;;;5.35;0.55;;;;;;;30.69;28.37;99248.91;5072639;28;20192;-86
2023/09/11 09:02:35;;;;;;;3.58;0.55;;;;;;;30.68;28.34;99252.69;5055785;28;20181;-86
2023/09/11 09:05:05;;;;;;;2.25;0.90;;;;;;;30.75;27.87;99250.81;5073477;28;20194;-86
2023/09/11 09:07:37;;;;;;;1.98;0.50;;;;;;;30.70;29.44;99247.03;5073656;28;20173;-85
2023/09/11 09:10:05;;;;;;;3.10;0.55;;;;;;;30.92;28.76;99243.16;5072907;28;20291;-86
2023/09/11 09:12:32;;;;;;;1.85;0.43;;;;;;;30.87;28.28;99240.22;5073189;28;20640;-85
2023/09/11 09:14:58;;;;;;;5.68;0.77;;;;;;;30.69;27.64;99240.78;5073085;28;20235;-85
2023/09/11 09:17:25;;;;;;;1.02;0.40;;;;;;;30.78;26.28;99231.44;5073759;28;20208;-86
2023/09/11 09:19:52;;;;;;;3.95;0.60;;;;;;;30.91;26.48;99231.47;5073194;28;20637;-87
2023/09/11 09:22:17;;;;;;;0.75;0.30;;;;;;;30.83;24.03;99228.94;5073055;28;20714;-86
2023/09/11 09:24:52;;;;;;;2.17;0.73;;;;;;;31.10;24.01;99228.97;5072877;28;20267;-85
2023/09/11 09:27:25;;;;;;;2.15;0.28;;;;;;;31.39;24.34;99229.34;5073723;28;20600;-86
2023/09/11 09:29:51;;;;;;;0.45;0.22;;;;;;;31.37;24.70;99225.16;5056353;28;20629;-84
2023/09/11 09:32:18;;;;;;;1.23;0.35;;;;;;;31.38;25.84;99227.69;5056064;28;20184;-86
2023/09/11 09:34:54;;;;;;;2.05;0.47;;;;;;;31.47;25.91;99225.63;5073036;28;20169;-86
2023/09/11 09:37:22;;;;;;;0.50;0.30;;;;;;;31.32;23.28;99216.84;5072811;28;20181;-86
2023/09/11 09:39:48;;;;;;;4.07;0.40;;;;;;;30.81;24.94;99219.38;5073357;28;20237;-85
2023/09/11 09:42:16;;;;;;;0.85;0.30;;;;;;;30.97;25.53;99216.28;5055140;28;20582;-85
2023/09/11 09:44:47;;;;;;;3.08;0.57;;;;;;;30.99;25.05;99211.47;5072723;28;20239;-85
2023/09/11 09:47:18;;;;;;;1.10;0.38;;;;;;;31.13;24.68;99209.59;5072902;28;20181;-85
2023/09/11 09:49:54;;;;;;;2.58;0.50;;;;;;;31.47;24.89;99207.47;5055253;28;20191;-86
2023/09/11 09:52:24;;;;;;;1.48;0.40;;;;;;;31.86;23.34;99211.94;5043831;28;20185;-89
2023/09/11 09:54:57;;;;;;;1.05;0.25;;;;;;;31.73;23.45;99193.00;5055843;28;20265;-88
2023/09/11 09:57:25;;;;;;;0.77;0.22;;;;;;;31.90;23.83;99194.19;5062407;28;20186;-86
2023/09/11 09:59:53;;;;;;;2.83;0.40;;;;;;;31.96;24.48;99192.47;5037902;28;20190;-86
2023/09/11 10:02:22;;;;;;;1.52;0.50;;;;;;;32.16;24.82;99191.34;5048355;28;20200;-85
2023/09/11 10:04:51;;;;;;;0.65;0.30;;;;;;;32.08;23.86;99185.34;5044097;28;20601;-85
2023/09/11 10:07:36;;;;;;;3.22;0.50;;;;;;;31.87;23.25;99189.19;5041009;28;20189;-85
2023/09/11 10:10:34;;;;;;;2.20;0.40;;;;;;;31.60;24.78;99195.78;5067028;28;20222;-86
2023/09/11 10:13:13;;;;;;;1.17;0.30;;;;;;;31.95;24.93;99194.34;5025663;28;20189;-85
2023/09/11 10:15:44;;;;;;;2.60;0.47;;;;;;;31.98;24.55;99188.50;5051041;28;20184;-86
2023/09/11 10:18:11;;;;;;;3.70;0.30;;;;;;;32.06;24.13;99182.88;5059112;28;20177;-86
2023/09/11 10:20:39;;;;;;;2.13;0.30;;;;;;;32.11;24.62;99185.75;5076320;28;20685;-86
2023/09/11 10:23:05;;;;;;;5.40;0.50;;;;;;;32.16;23.60;99177.78;5058736;28;20268;-86
2023/09/11 10:25:39;;;;;;;2.83;0.45;;;;;;;32.25;24.14;99180.25;5057824;28;20258;-86
2023/09/11 10:28:13;;;;;;;0.90;0.20;;;;;;;32.52;22.46;99171.72;5057392;28;20518;-85
2023/09/11 10:30:47;;;;;;;2.58;0.30;;;;;;;32.73;22.60;99176.78;5076624;28;20157;-87
2023/09/11 10:33:20;;;;;;;0.50;0.30;;;;;;;32.74;22.32;99170.31;5076832;28;20158;-85
2023/09/11 10:35:47;;;;;;;2.95;1.00;;;;;;;32.93;22.36;99165.75;5076564;28;20164;-86
2023/09/11 10:38:15;;;;;;;1.90;0.50;;;;;;;32.93;23.31;99163.03;5059366;28;20203;-85
2023/09/11 10:40:42;;;;;;;1.45;0.40;;;;;;;33.13;22.52;99160.16;5076035;28;20561;-85
2023/09/11 10:43:08;;;;;;;1.95;0.40;;;;;;;32.99;23.02;99151.28;5076064;28;20619;-85
2023/09/11 10:45:34;;;;;;;1.25;0.30;;;;;;;32.55;21.29;99159.59;5058286;28;20225;-85
2023/09/11 10:48:00;;;;;;;1.15;0.38;;;;;;;32.53;20.55;99154.41;5076309;28;20172;-85
2023/09/11 10:50:37;;;;;;;1.13;0.30;;;;;;;32.47;21.08;99152.53;5075937;28;20177;-85
2023/09/11 10:53:07;;;;;;;1.15;0.30;;;;;;;32.27;21.32;99142.88;5075055;28;20695;-85
2023/09/11 10:55:33;;;;;;;6.28;0.55;;;;;;;31.88;21.21;99161.03;5075924;28;20219;-85
2023/09/11 10:58:03;;;;;;;0.50;0.20;;;;;;;31.62;21.48;99153.03;5076199;28;20238;-85
2023/09/11 11:00:29;;;;;;;0.57;0.20;;;;;;;32.13;21.14;99153.81;5057985;28;20261;-85
2023/09/11 11:02:57;;;;;;;0.50;0.15;;;;;;;32.44;21.11;99144.84;5058122;28;20173;-85
2023/09/11 11:05:23;;;;;;;1.35;0.32;;;;;;;32.16;20.87;99144.41;5058606;28;20180;-85
2023/09/11 11:07:51;;;;;;;1.02;0.20;;;;;;;32.10;21.23;99137.97;5075588;28;20183;-87
2023/09/11 11:10:17;;;;;;;2.35;0.98;;;;;;;32.23;22.49;99143.31;5076187;28;20184;-85
2023/09/11 11:12:44;;;;;;;1.42;0.25;;;;;;;32.46;21.11;99134.59;5076146;28;20169;-85
2023/09/11 11:15:19;;;;;;;0.68;0.22;;;;;;;32.93;20.51;99138.59;5075528;28;20165;-86
2023/09/11 11:17:45;;;;;;;0.90;0.20;;;;;;;33.07;20.40;99132.00;5075447;28;20168;-85
2023/09/11 11:20:11;;;;;;;1.10;0.35;;;;;;;33.20;19.89;99120.97;5075325;28;20208;-85
2023/09/11 11:22:41;;;;;;;0.30;0.10;;;;;;;33.17;20.39;99118.75;5057000;28;20185;-85
2023/09/11 11:25:10;;;;;;;0.57;0.20;;;;;;;32.79;19.95;99129.75;5075864;28;20180;-85
2023/09/11 11:27:38;;;;;;;3.65;0.38;;;;;;;32.94;20.69;99126.66;5075818;28;20180;-86
2023/09/11 11:30:05;;;;;;;1.95;0.70;;;;;;;33.26;20.17;99124.69;5057626;28;20796;-86
2023/09/11 11:32:34;;;;;;;1.95;0.25;;;;;;;32.78;20.11;99122.63;5075443;28;20173;-85
2023/09/11 11:35:02;;;;;;;3.33;0.30;;;;;;;32.98;20.16;99108.03;5075388;28;20333;-85
2023/09/11 11:37:31;;;;;;;0.88;0.25;;;;;;;32.90;19.71;99111.88;5075125;28;20582;-84